Time;durP1;ratioP1;P1;durP2;ratioP2;P2;SDS_P1;SDS_P2;PMS_P1;PMS_P2;Temp;Humidity;BMP_temperature;BMP_pressure;BME280_temperature;BME280_humidity;BME280_pressure;Samples;Min_cycle;Max_cycle;Signal;HPM_P1;HPM_P2
2021/12/12 00:00:03;;;;;;;84.27;21.60;;;-1.70;99.90;;;;;;5114886;28;20628;-80
2021/12/12 00:02:49;;;;;;;72.97;22.07;;;-1.70;99.90;;;;;;5115212;28;20666;-79
2021/12/12 00:05:21;;;;;;;70.03;23.13;;;-1.70;99.90;;;;;;5115251;28;20183;-80
2021/12/12 00:07:49;;;;;;;71.47;23.10;;;-1.70;99.90;;;;;;5114214;28;20639;-81
2021/12/12 00:10:22;;;;;;;69.63;22.30;;;-1.70;99.90;;;;;;5114732;28;20187;-80
2021/12/12 00:12:52;;;;;;;80.60;24.00;;;-1.70;99.90;;;;;;5114709;28;20585;-80
2021/12/12 00:15:21;;;;;;;75.60;23.30;;;-1.70;99.90;;;;;;5115311;28;20592;-80
2021/12/12 00:17:48;;;;;;;76.07;23.00;;;-1.60;99.90;;;;;;5114557;28;20723;-80
2021/12/12 00:20:19;;;;;;;67.07;21.20;;;-1.60;99.90;;;;;;5114367;28;20705;-80
2021/12/12 00:22:46;;;;;;;65.97;21.83;;;-1.60;99.90;;;;;;5114806;28;20214;-80
2021/12/12 00:25:16;;;;;;;65.67;22.07;;;-1.60;99.90;;;;;;5114859;28;20277;-80
2021/12/12 00:27:44;;;;;;;68.00;22.37;;;-1.60;99.90;;;;;;5114666;28;20248;-80
2021/12/12 00:30:13;;;;;;;63.90;22.50;;;-1.60;99.90;;;;;;5114533;28;20222;-79
2021/12/12 00:32:40;;;;;;;62.50;21.03;;;-1.60;99.90;;;;;;5114519;28;20191;-80
2021/12/12 00:35:11;;;;;;;71.97;21.20;;;-1.60;99.90;;;;;;5114161;28;20190;-79
2021/12/12 00:37:38;;;;;;;61.60;20.47;;;-1.60;99.90;;;;;;5114469;28;20217;-80
2021/12/12 00:40:10;;;;;;;63.23;21.27;;;-1.60;99.90;;;;;;5113949;28;20239;-79
2021/12/12 00:42:40;;;;;;;61.47;19.87;;;-1.60;99.90;;;;;;5114415;28;20178;-80
2021/12/12 00:45:11;;;;;;;52.77;19.63;;;-1.60;99.90;;;;;;5114394;28;20179;-79
2021/12/12 00:47:40;;;;;;;61.33;21.40;;;-1.60;99.90;;;;;;5114318;28;20179;-79
2021/12/12 00:50:11;;;;;;;63.07;20.83;;;-1.60;99.90;;;;;;5113901;28;20244;-80
2021/12/12 00:52:38;;;;;;;61.30;21.70;;;-1.60;99.90;;;;;;5113847;28;20204;-79
2021/12/12 00:55:06;;;;;;;52.17;19.73;;;-1.60;99.90;;;;;;5113761;28;20720;-79
2021/12/12 00:57:34;;;;;;;56.90;18.87;;;-1.60;99.90;;;;;;5114021;28;20239;-79
2021/12/12 01:00:02;;;;;;;53.03;19.70;;;-1.60;99.90;;;;;;5113969;28;20294;-80
2021/12/12 01:02:31;;;;;;;49.40;17.43;;;-1.60;99.90;;;;;;5113877;28;20196;-80
2021/12/12 01:05:01;;;;;;;55.10;19.80;;;-1.60;99.90;;;;;;5114028;28;20295;-80
2021/12/12 01:07:32;;;;;;;48.27;18.40;;;-1.70;99.90;;;;;;5114015;28;20179;-80
2021/12/12 01:10:08;;;;;;;46.63;18.33;;;-1.70;99.90;;;;;;5112953;28;20194;-80
2021/12/12 01:12:36;;;;;;;53.23;20.87;;;-1.70;99.90;;;;;;5113272;28;20227;-80
2021/12/12 01:15:09;;;;;;;49.37;19.70;;;-1.70;99.90;;;;;;5113360;28;20194;-79
2021/12/12 01:17:40;;;;;;;46.87;18.10;;;-1.70;99.90;;;;;;5113729;28;20235;-81
2021/12/12 01:20:14;;;;;;;49.43;19.27;;;-1.70;99.90;;;;;;5112398;28;20203;-79
2021/12/12 01:22:42;;;;;;;47.33;18.43;;;-1.70;99.90;;;;;;5113316;28;20194;-79
2021/12/12 01:25:17;;;;;;;45.30;17.20;;;-1.70;99.90;;;;;;5113524;28;20244;-80
2021/12/12 01:27:45;;;;;;;41.30;17.10;;;-1.80;99.90;;;;;;5113548;28;20243;-80
2021/12/12 01:30:16;;;;;;;44.73;16.67;;;-1.70;99.90;;;;;;5113433;28;20198;-81
2021/12/12 01:32:46;;;;;;;47.43;18.60;;;-1.80;99.90;;;;;;5113056;28;20723;-79
2021/12/12 01:35:16;;;;;;;49.37;19.37;;;-1.80;99.90;;;;;;5113419;28;20186;-80
2021/12/12 01:38:50;;;;;;;48.73;17.63;;;-1.80;99.90;;;;;;5113430;28;20189;-80
2021/12/12 01:40:35;;;;;;;60.70;23.77;;;-1.80;99.90;;;;;;5112304;28;20215;-80
2021/12/12 01:43:06;;;;;;;61.23;22.20;;;-1.80;99.90;;;;;;5113209;28;20247;-80
2021/12/12 01:45:41;;;;;;;53.97;21.00;;;-1.80;99.90;;;;;;5112990;28;20236;-79
2021/12/12 01:48:17;;;;;;;54.63;21.37;;;-1.70;99.90;;;;;;5112936;28;20178;-80
2021/12/12 01:50:48;;;;;;;47.40;18.60;;;-1.80;99.90;;;;;;5112929;28;20194;-79
2021/12/12 01:53:18;;;;;;;52.47;20.23;;;-1.70;99.90;;;;;;5113195;28;20228;-80
2021/12/12 01:55:48;;;;;;;47.23;19.03;;;-1.80;99.90;;;;;;5112759;28;20702;-79
2021/12/12 01:58:18;;;;;;;48.93;19.00;;;-1.70;99.90;;;;;;5112760;28;20623;-81
2021/12/12 02:00:50;;;;;;;45.97;19.27;;;-1.70;99.90;;;;;;5113013;28;20190;-80
2021/12/12 02:03:20;;;;;;;44.83;18.70;;;-1.70;99.90;;;;;;5113098;28;20228;-80
2021/12/12 02:05:48;;;;;;;48.63;19.10;;;-1.70;99.90;;;;;;5113024;28;20178;-82
2021/12/12 02:08:19;;;;;;;46.90;18.60;;;-1.80;99.90;;;;;;5112932;28;20194;-80
2021/12/12 02:10:49;;;;;;;47.20;18.27;;;-1.80;99.90;;;;;;5112333;28;20183;-80
2021/12/12 02:13:20;;;;;;;46.03;18.07;;;-1.70;99.90;;;;;;5112584;28;20195;-80
2021/12/12 02:15:51;;;;;;;44.10;17.17;;;-1.70;99.90;;;;;;5112921;28;20198;-80
2021/12/12 02:18:26;;;;;;;44.83;18.33;;;-1.70;99.90;;;;;;5112518;28;20236;-80
2021/12/12 02:21:06;;;;;;;47.57;18.40;;;-1.70;99.90;;;;;;5113276;28;20265;-80
2021/12/12 02:23:49;;;;;;;49.73;18.83;;;-1.70;99.90;;;;;;5112518;28;20214;-79
2021/12/12 02:37:15;;;;;;;45.27;17.27;;;-1.70;99.90;;;;;;5116636;28;20258;-80
2021/12/12 02:39:43;;;;;;;50.50;18.17;;;-1.70;99.90;;;;;;5116543;28;20226;-79
2021/12/12 02:42:13;;;;;;;36.73;14.67;;;-1.70;99.90;;;;;;5116793;28;20222;-80
2021/12/12 02:44:43;;;;;;;49.07;20.20;;;-1.70;99.90;;;;;;5116713;28;20179;-80
2021/12/12 02:47:17;;;;;;;44.77;18.53;;;-1.70;99.90;;;;;;5116597;28;20216;-80
2021/12/12 02:50:07;;;;;;;49.17;19.70;;;-1.70;99.90;;;;;;5116405;28;20183;-80
2021/12/12 02:52:35;;;;;;;45.87;18.00;;;-1.70;99.90;;;;;;5116288;28;20579;-79
2021/12/12 02:55:09;;;;;;;44.70;18.30;;;-1.70;99.90;;;;;;5116547;28;20198;-80
2021/12/12 02:57:36;;;;;;;41.80;18.80;;;-1.60;99.90;;;;;;5115858;28;20651;-80
2021/12/12 03:00:05;;;;;;;47.87;19.37;;;-1.60;99.90;;;;;;5116295;28;20214;-80
2021/12/12 03:02:39;;;;;;;44.30;18.67;;;-1.60;99.90;;;;;;5115988;28;20746;-80
2021/12/12 03:05:07;;;;;;;42.03;17.57;;;-1.60;99.90;;;;;;5115946;28;20521;-79
2021/12/12 03:07:35;;;;;;;47.63;18.87;;;-1.60;99.90;;;;;;5115928;28;20647;-80
2021/12/12 03:10:09;;;;;;;49.10;20.37;;;-1.60;99.90;;;;;;5115728;28;20222;-80
2021/12/12 03:12:37;;;;;;;46.40;19.53;;;-1.60;99.90;;;;;;5115801;28;20228;-80
2021/12/12 03:15:09;;;;;;;46.37;18.47;;;-1.60;99.90;;;;;;5115699;28;20595;-79
2021/12/12 03:17:38;;;;;;;47.33;18.67;;;-1.60;99.90;;;;;;5115539;28;20643;-80
2021/12/12 03:20:10;;;;;;;44.73;19.00;;;-1.50;99.90;;;;;;5115547;28;20214;-81
2021/12/12 03:22:38;;;;;;;48.20;19.10;;;-1.50;99.90;;;;;;5116085;28;20183;-80
2021/12/12 03:25:07;;;;;;;47.87;19.70;;;-1.50;99.90;;;;;;5115871;28;20186;-81
2021/12/12 03:27:35;;;;;;;47.23;18.33;;;-1.50;99.90;;;;;;5115471;28;20707;-81
2021/12/12 03:30:04;;;;;;;44.40;19.17;;;-1.50;99.90;;;;;;5115463;28;20248;-79
2021/12/12 03:32:31;;;;;;;46.83;18.10;;;-1.50;99.90;;;;;;5115660;28;20197;-80
2021/12/12 03:34:59;;;;;;;51.27;19.37;;;-1.50;99.90;;;;;;5115625;28;20190;-79
2021/12/12 03:37:35;;;;;;;44.23;18.47;;;-1.50;99.90;;;;;;5115930;28;20289;-79
2021/12/12 03:40:11;;;;;;;47.57;19.67;;;-1.40;99.90;;;;;;5114568;28;20224;-80
2021/12/12 03:42:38;;;;;;;45.50;19.37;;;-1.40;99.90;;;;;;5114575;28;20178;-79
2021/12/12 03:45:07;;;;;;;45.13;19.03;;;-1.40;99.90;;;;;;5115171;28;20220;-79
2021/12/12 03:47:39;;;;;;;48.00;18.73;;;-1.40;99.90;;;;;;5115355;28;20277;-79
2021/12/12 03:50:12;;;;;;;44.40;18.23;;;-1.40;99.90;;;;;;5114951;28;20220;-80
2021/12/12 03:52:40;;;;;;;47.43;18.00;;;-1.40;99.90;;;;;;5115412;28;20246;-80
2021/12/12 03:55:11;;;;;;;48.17;19.53;;;-1.40;99.90;;;;;;5115465;28;20277;-80
2021/12/12 03:57:40;;;;;;;40.47;16.50;;;-1.40;99.90;;;;;;5115147;28;20178;-79
2021/12/12 04:00:14;;;;;;;43.83;18.27;;;-1.40;99.90;;;;;;5115253;28;20214;-81
2021/12/12 04:02:42;;;;;;;43.17;18.77;;;-1.30;99.90;;;;;;5114959;28;20706;-80
2021/12/12 04:05:09;;;;;;;45.17;19.00;;;-1.30;99.90;;;;;;5114752;28;20665;-80
2021/12/12 04:07:37;;;;;;;43.70;17.90;;;-1.30;99.90;;;;;;5115062;28;20186;-80
2021/12/12 04:10:05;;;;;;;43.33;17.43;;;-1.30;99.90;;;;;;5115200;28;20240;-80
2021/12/12 04:12:33;;;;;;;43.87;19.13;;;-1.30;99.90;;;;;;5114890;28;20662;-80
2021/12/12 04:15:00;;;;;;;53.00;21.43;;;-1.30;99.90;;;;;;5115292;28;20187;-78
2021/12/12 04:17:30;;;;;;;60.43;22.93;;;-1.30;99.90;;;;;;5114665;28;20534;-81
2021/12/12 04:20:00;;;;;;;63.43;22.70;;;-1.30;99.90;;;;;;5114678;28;20271;-80
2021/12/12 04:22:27;;;;;;;57.37;21.37;;;-1.30;99.90;;;;;;5114811;28;20298;-79
2021/12/12 04:24:56;;;;;;;57.93;20.57;;;-1.30;99.90;;;;;;5114696;28;20191;-81
2021/12/12 04:27:26;;;;;;;52.13;20.57;;;-1.20;99.90;;;;;;5114480;28;20263;-81
2021/12/12 04:29:56;;;;;;;53.60;20.40;;;-1.20;99.90;;;;;;5114233;28;20197;-80
2021/12/12 04:32:24;;;;;;;49.00;19.43;;;-1.20;99.90;;;;;;5114594;28;20259;-80
2021/12/12 04:34:54;;;;;;;46.50;20.00;;;-1.20;99.90;;;;;;5114215;28;20194;-80
2021/12/12 04:37:23;;;;;;;48.20;19.10;;;-1.20;99.90;;;;;;5114109;28;20595;-80
2021/12/12 04:39:53;;;;;;;44.63;18.87;;;-1.10;99.90;;;;;;5114412;28;20214;-81
2021/12/12 04:42:24;;;;;;;47.27;18.33;;;-1.10;99.90;;;;;;5114542;28;20229;-80
2021/12/12 04:44:53;;;;;;;47.20;18.47;;;-1.20;99.90;;;;;;5114080;28;20178;-80
2021/12/12 04:50:21;;;;;;;46.60;19.57;;;-1.10;99.90;;;;;;5114202;28;20177;-80
2021/12/12 04:52:54;;;;;;;44.03;18.93;;;-1.10;99.90;;;;;;5114110;28;20179;-80
2021/12/12 04:55:28;;;;;;;46.63;19.30;;;-1.10;99.90;;;;;;5122345;27;20189;-80
2021/12/12 04:58:06;;;;;;;48.57;19.50;;;-1.10;99.90;;;;;;5132179;27;20208;-78
2021/12/12 05:00:38;;;;;;;44.57;19.43;;;-1.10;99.90;;;;;;5114419;28;20203;-80
2021/12/12 05:03:16;;;;;;;45.23;19.00;;;-1.10;99.90;;;;;;5114114;28;20212;-79
2021/12/12 05:05:49;;;;;;;41.13;18.10;;;-1.10;99.90;;;;;;5113496;28;20901;-81
2021/12/12 05:08:22;;;;;;;48.37;19.27;;;-1.10;99.90;;;;;;5113373;28;20533;-80
2021/12/12 05:11:00;;;;;;;44.23;18.90;;;-1.10;99.90;;;;;;5113918;28;20183;-80
2021/12/12 05:13:34;;;;;;;45.90;19.07;;;-1.10;99.90;;;;;;5113829;28;20182;-80
2021/12/12 05:16:16;;;;;;;45.80;19.40;;;-1.10;99.90;;;;;;5114241;28;20178;-79
2021/12/12 05:18:50;;;;;;;47.03;20.07;;;-1.10;99.90;;;;;;5113694;28;20270;-80
2021/12/12 05:21:23;;;;;;;46.53;19.17;;;-1.00;99.90;;;;;;5113650;28;20206;-79
2021/12/12 05:23:56;;;;;;;49.07;21.27;;;-1.10;99.90;;;;;;5113692;28;20239;-80
2021/12/12 05:26:28;;;;;;;45.67;19.30;;;-1.10;99.90;;;;;;5096116;28;20648;-78
2021/12/12 05:29:02;;;;;;;53.80;21.30;;;-1.00;99.90;;;;;;5105075;28;20182;-80
2021/12/12 05:31:30;;;;;;;44.60;19.20;;;-1.00;99.90;;;;;;5113225;28;20174;-80
2021/12/12 05:33:59;;;;;;;48.03;21.97;;;-1.10;99.90;;;;;;5113045;28;20976;-80
2021/12/12 05:36:28;;;;;;;46.70;20.70;;;-1.10;99.90;;;;;;5113129;28;20243;-80
2021/12/12 05:38:57;;;;;;;51.37;21.27;;;-1.10;99.90;;;;;;5113062;28;20187;-79
2021/12/12 05:41:25;;;;;;;47.97;20.50;;;-1.00;99.90;;;;;;5113035;28;20230;-79
2021/12/12 05:43:59;;;;;;;48.40;20.00;;;-1.00;99.90;;;;;;5112995;28;20248;-79
2021/12/12 05:46:27;;;;;;;49.07;19.23;;;-1.00;99.90;;;;;;5118507;27;20242;-80
2021/12/12 05:48:54;;;;;;;45.07;19.57;;;-1.00;99.90;;;;;;5133780;27;20296;-80
2021/12/12 05:51:23;;;;;;;52.20;20.10;;;-1.00;99.90;;;;;;5125081;27;20227;-79
2021/12/12 05:53:52;;;;;;;46.13;20.87;;;-1.00;99.90;;;;;;5113264;28;20194;-79
2021/12/12 05:56:23;;;;;;;47.27;19.60;;;-1.00;99.90;;;;;;5113053;28;20190;-80
2021/12/12 05:58:51;;;;;;;49.10;21.10;;;-1.00;99.90;;;;;;5111720;28;20209;-80
2021/12/12 06:01:19;;;;;;;41.07;15.00;;;-1.00;99.90;;;;;;5121591;27;20603;-80
2021/12/12 06:03:47;;;;;;;46.63;18.37;;;-1.00;99.90;;;;;;5133574;28;20240;-80
2021/12/12 06:06:22;;;;;;;48.77;19.67;;;-1.00;99.90;;;;;;5127617;27;20190;-80
2021/12/12 06:08:51;;;;;;;47.00;19.50;;;-0.90;99.90;;;;;;5092139;28;20190;-80
2021/12/12 06:11:22;;;;;;;48.30;18.80;;;-0.90;99.90;;;;;;5092080;28;20727;-80
2021/12/12 06:13:50;;;;;;;45.83;17.50;;;-1.00;99.90;;;;;;5092697;28;20188;-81
2021/12/12 06:16:19;;;;;;;42.87;17.87;;;-1.00;99.90;;;;;;5103603;28;20218;-80
2021/12/12 06:18:51;;;;;;;51.30;18.50;;;-1.00;99.90;;;;;;5092474;28;20195;-80
2021/12/12 06:21:19;;;;;;;42.20;16.40;;;-1.00;99.90;;;;;;5092190;28;20732;-80
2021/12/12 06:23:46;;;;;;;42.77;17.00;;;-1.00;99.90;;;;;;5092547;28;20195;-80
2021/12/12 06:26:16;;;;;;;39.83;14.90;;;-1.00;99.90;;;;;;5092492;28;20199;-80
2021/12/12 06:28:44;;;;;;;56.50;21.83;;;-1.00;99.90;;;;;;5103209;28;20194;-81
2021/12/12 06:31:11;;;;;;;47.97;17.20;;;-1.00;99.90;;;;;;5122951;28;20185;-79
2021/12/12 06:33:39;;;;;;;47.77;16.90;;;-1.00;99.90;;;;;;5120921;28;20231;-80
2021/12/12 06:36:07;;;;;;;45.77;16.90;;;-1.00;99.90;;;;;;5128974;28;20190;-80
2021/12/12 06:38:36;;;;;;;47.67;18.30;;;-1.00;99.90;;;;;;5133322;28;20533;-80
2021/12/12 06:41:03;;;;;;;38.83;15.67;;;-1.00;99.90;;;;;;5116471;28;20283;-80
2021/12/12 06:43:33;;;;;;;49.40;17.90;;;-1.00;99.90;;;;;;5112700;28;20568;-81
2021/12/12 06:46:01;;;;;;;38.90;15.63;;;-1.10;99.90;;;;;;5112339;28;20206;-81
2021/12/12 06:48:30;;;;;;;46.93;16.30;;;-1.10;99.90;;;;;;5111420;28;20191;-81
2021/12/12 06:50:58;;;;;;;46.27;16.63;;;-1.00;99.90;;;;;;5111990;28;20222;-82
2021/12/12 06:53:28;;;;;;;48.53;16.57;;;-1.00;99.90;;;;;;5112233;28;20230;-83
2021/12/12 06:55:58;;;;;;;43.73;16.90;;;-1.00;99.90;;;;;;5115150;28;20904;-83
2021/12/12 06:58:28;;;;;;;51.63;20.00;;;-1.00;99.90;;;;;;5120023;28;20231;-82
2021/12/12 07:01:00;;;;;;;55.27;21.80;;;-1.00;99.90;;;;;;5111815;28;20218;-82
2021/12/12 07:03:34;;;;;;;52.93;20.53;;;-1.00;99.90;;;;;;5112551;28;20212;-82
2021/12/12 07:06:02;;;;;;;50.67;21.13;;;-0.90;99.90;;;;;;5111895;28;20257;-82
2021/12/12 07:08:29;;;;;;;47.83;17.77;;;-0.90;99.90;;;;;;5112398;28;20191;-82
2021/12/12 07:14:06;;;;;;;47.93;19.10;;;-0.90;99.90;;;;;;5110069;28;20207;-83
2021/12/12 07:16:36;;;;;;;58.40;22.13;;;-0.90;99.90;;;;;;5111799;28;20182;-82
2021/12/12 07:19:05;;;;;;;55.53;19.23;;;-0.80;99.90;;;;;;5119597;28;20195;-81
2021/12/12 07:21:35;;;;;;;51.50;20.13;;;-0.80;99.90;;;;;;5115227;28;20217;-79
2021/12/12 07:24:04;;;;;;;49.00;18.50;;;-0.80;99.90;;;;;;5118764;27;20191;-81
2021/12/12 07:26:37;;;;;;;56.73;21.30;;;-0.80;99.90;;;;;;5115878;28;20263;-82
2021/12/12 07:29:10;;;;;;;56.33;22.07;;;-0.70;99.90;;;;;;5121511;27;20175;-82
2021/12/12 07:31:50;;;;;;;59.47;23.67;;;-0.70;99.90;;;;;;5134026;27;20247;-82
2021/12/12 07:34:28;;;;;;;66.20;23.50;;;-0.70;99.90;;;;;;5143213;27;20638;-83
2021/12/12 07:36:59;;;;;;;57.37;22.97;;;-0.60;99.90;;;;;;5136934;27;20178;-82
2021/12/12 07:39:32;;;;;;;64.60;25.90;;;-0.60;99.90;;;;;;5127491;27;20632;-82
2021/12/12 07:42:02;;;;;;;66.83;26.33;;;-0.50;99.90;;;;;;5118323;28;20222;-83
2021/12/12 07:44:40;;;;;;;67.27;26.33;;;-0.50;99.90;;;;;;5115871;28;20191;-81
2021/12/12 07:47:11;;;;;;;72.30;30.27;;;-0.40;99.90;;;;;;5115255;28;20304;-81
2021/12/12 07:49:41;;;;;;;74.13;30.43;;;-0.40;99.90;;;;;;5115524;27;20212;-80
2021/12/12 07:52:11;;;;;;;78.73;33.73;;;-0.30;99.90;;;;;;5129650;27;20190;-82
2021/12/12 07:54:40;;;;;;;68.40;27.87;;;-0.20;99.90;;;;;;5136450;27;20551;-83
2021/12/12 07:57:07;;;;;;;72.83;28.20;;;-0.20;99.90;;;;;;5137222;27;20193;-79
2021/12/12 07:59:37;;;;;;;71.83;26.60;;;-0.10;99.90;;;;;;5124497;27;20306;-81
2021/12/12 08:02:06;;;;;;;77.87;30.63;;;-0.10;99.90;;;;;;5115182;28;20259;-79
2021/12/12 08:04:35;;;;;;;74.63;30.13;;;0.00;99.90;;;;;;5115239;28;20199;-79
2021/12/12 08:07:04;;;;;;;75.27;28.37;;;0.10;99.90;;;;;;5117861;28;20187;-83
2021/12/12 08:09:31;;;;;;;87.53;29.03;;;0.10;99.90;;;;;;5115689;28;20199;-81
2021/12/12 08:11:59;;;;;;;77.13;28.23;;;0.20;99.90;;;;;;5115052;28;20194;-81
2021/12/12 08:14:30;;;;;;;83.50;30.33;;;0.20;99.90;;;;;;5121612;28;20190;-83
2021/12/12 08:16:58;;;;;;;71.70;28.77;;;0.30;99.90;;;;;;5116805;28;20208;-79
2021/12/12 08:19:33;;;;;;;77.30;28.97;;;0.30;99.90;;;;;;5129882;28;20646;-80
2021/12/12 08:22:06;;;;;;;84.27;32.00;;;0.40;99.90;;;;;;5114605;28;20543;-81
2021/12/12 08:24:34;;;;;;;71.07;28.30;;;0.40;99.90;;;;;;5116366;28;20606;-79
2021/12/12 08:27:09;;;;;;;73.13;28.17;;;0.50;99.90;;;;;;5114739;28;20190;-80
2021/12/12 08:29:38;;;;;;;68.20;28.97;;;0.50;99.90;;;;;;5095616;28;20198;-79
2021/12/12 08:32:06;;;;;;;67.33;28.97;;;0.60;99.90;;;;;;5114613;28;20199;-79
2021/12/12 08:34:34;;;;;;;68.73;28.97;;;0.60;99.90;;;;;;5129205;28;20178;-80
2021/12/12 08:37:05;;;;;;;74.17;27.47;;;0.60;99.90;;;;;;5114529;28;20195;-80
2021/12/12 08:39:34;;;;;;;70.23;27.60;;;0.60;99.90;;;;;;5114241;28;20631;-81
2021/12/12 08:42:05;;;;;;;71.67;27.60;;;0.70;99.90;;;;;;5117267;28;20226;-81
2021/12/12 08:44:33;;;;;;;67.83;26.57;;;0.70;99.90;;;;;;5130451;28;20179;-80
2021/12/12 08:47:03;;;;;;;66.10;26.77;;;0.80;99.90;;;;;;5132117;28;20191;-81
2021/12/12 08:49:38;;;;;;;62.13;25.93;;;0.80;99.90;;;;;;5137773;28;20187;-82
2021/12/12 08:52:10;;;;;;;70.20;26.97;;;0.80;99.90;;;;;;5120740;28;20190;-83
2021/12/12 08:54:42;;;;;;;71.93;29.27;;;0.80;99.90;;;;;;5114418;28;20197;-83
2021/12/12 08:57:20;;;;;;;90.87;39.03;;;0.80;99.90;;;;;;5114139;28;20211;-83
2021/12/12 08:59:49;;;;;;;74.30;31.20;;;0.90;99.90;;;;;;5113829;28;20650;-82
2021/12/12 09:02:19;;;;;;;82.10;33.03;;;0.90;99.90;;;;;;5114268;28;20567;-80
2021/12/12 09:04:53;;;;;;;71.20;27.50;;;1.00;99.90;;;;;;5114615;28;20267;-81
2021/12/12 09:07:40;;;;;;;69.77;27.47;;;1.00;99.90;;;;;;5113838;28;20186;-82
2021/12/12 09:10:13;;;;;;;63.57;27.63;;;1.10;99.90;;;;;;5113645;28;20182;-81
2021/12/12 09:12:50;;;;;;;68.93;26.50;;;1.10;99.90;;;;;;5113898;28;20179;-82
2021/12/12 09:15:25;;;;;;;62.10;26.63;;;1.20;99.90;;;;;;5113487;28;20226;-83
2021/12/12 09:21:47;;;;;;;;;;;;;;;;;;;;;
2021/12/12 09:24:29;;;;;;;63.37;25.77;;;1.20;99.90;;;;;;5138111;28;20219;-82
2021/12/12 09:27:07;;;;;;;60.37;26.83;;;1.20;99.90;;;;;;5137610;28;20226;-81
2021/12/12 09:29:41;;;;;;;59.83;30.37;;;1.20;99.90;;;;;;5127888;28;20219;-80
2021/12/12 09:32:12;;;;;;;72.10;32.90;;;1.30;99.90;;;;;;5118719;27;20582;-80
2021/12/12 09:34:51;;;;;;;60.83;28.03;;;1.30;99.90;;;;;;5113177;28;20591;-80
2021/12/12 09:37:23;;;;;;;54.73;27.23;;;1.30;99.90;;;;;;5113244;28;20182;-80
2021/12/12 09:40:00;;;;;;;63.83;32.30;;;1.30;99.90;;;;;;5112844;28;20204;-80
2021/12/12 09:43:09;;;;;;;47.33;24.60;;;1.30;99.90;;;;;;5072814;28;20219;-82
2021/12/12 09:46:03;;;;;;;52.67;26.07;;;1.30;99.90;;;;;;5036198;28;20261;-80
2021/12/12 09:52:42;;;;;;;70.87;35.50;;;1.20;99.90;;;;;;5053589;28;20195;-79
2021/12/12 09:55:17;;;;;;;47.90;22.47;;;1.20;99.90;;;;;;5073205;28;20187;-83
2021/12/12 09:57:51;;;;;;;61.03;27.33;;;1.20;99.90;;;;;;5072686;28;20176;-79
2021/12/12 10:00:23;;;;;;;60.95;28.55;;;1.20;99.90;;;;;;5074432;28;20423;-81
2021/12/12 10:03:16;;;;;;;55.27;26.57;;;1.20;99.90;;;;;;5072464;28;20652;-79
2021/12/12 10:05:54;;;;;;;66.97;31.17;;;1.30;99.90;;;;;;5072529;28;20242;-79
2021/12/12 10:08:54;;;;;;;61.23;29.97;;;1.20;99.90;;;;;;5072199;28;20702;-80
2021/12/12 10:11:43;;;;;;;58.73;28.40;;;1.30;99.90;;;;;;5084528;28;20194;-79
2021/12/12 10:14:15;;;;;;;57.53;27.07;;;1.30;99.90;;;;;;5092410;28;20522;-78
2021/12/12 10:16:50;;;;;;;60.63;27.93;;;1.40;99.90;;;;;;5078315;28;20185;-78
2021/12/12 10:19:29;;;;;;;62.20;27.73;;;1.40;99.90;;;;;;5072005;28;20241;-79
2021/12/12 10:22:12;;;;;;;54.87;24.23;;;1.50;99.90;;;;;;5072215;28;20277;-79
2021/12/12 10:24:44;;;;;;;64.20;27.43;;;1.50;99.90;;;;;;5072049;28;20229;-78
2021/12/12 10:27:16;;;;;;;67.17;30.83;;;1.60;99.90;;;;;;5077510;28;20286;-78
2021/12/12 10:29:57;;;;;;;58.23;27.07;;;1.60;99.90;;;;;;5079013;28;20184;-78
2021/12/12 10:32:28;;;;;;;53.60;25.50;;;1.70;99.90;;;;;;5072489;28;20230;-79
2021/12/12 10:35:05;;;;;;;68.07;28.63;;;1.70;99.90;;;;;;5076148;28;20215;-79
2021/12/12 10:37:36;;;;;;;62.83;27.97;;;1.70;99.90;;;;;;5071713;28;20696;-80
2021/12/12 10:40:09;;;;;;;64.40;27.77;;;1.80;99.90;;;;;;5072560;28;20233;-80
2021/12/12 10:42:46;;;;;;;59.47;27.50;;;1.80;99.90;;;;;;5102563;28;20208;-82
2021/12/12 10:45:19;;;;;;;58.13;28.40;;;1.90;99.90;;;;;;5109630;28;20172;-83
2021/12/12 10:47:55;;;;;;;62.13;26.70;;;1.80;99.90;;;;;;5115771;28;20209;-83
2021/12/12 10:50:34;;;;;;;69.97;31.53;;;1.80;99.90;;;;;;5116076;28;20164;-82
2021/12/12 10:53:11;;;;;;;72.00;32.47;;;1.90;99.90;;;;;;5118854;28;20186;-80
2021/12/12 10:55:54;;;;;;;68.33;31.93;;;1.90;99.90;;;;;;5120093;28;20176;-81
2021/12/12 10:58:37;;;;;;;64.30;29.53;;;1.90;99.90;;;;;;5119452;28;20186;-82
2021/12/12 11:01:16;;;;;;;62.83;28.83;;;2.00;99.90;;;;;;5119710;28;20158;-79
2021/12/12 11:03:53;;;;;;;65.23;28.33;;;2.10;99.90;;;;;;5118870;28;20205;-82
2021/12/12 11:06:30;;;;;;;67.23;30.47;;;2.10;99.90;;;;;;5119733;28;20185;-82
2021/12/12 11:09:03;;;;;;;68.70;30.80;;;2.20;99.90;;;;;;5099243;28;20196;-82
2021/12/12 11:11:36;;;;;;;60.47;29.03;;;2.30;99.90;;;;;;5098296;28;20178;-78
2021/12/12 11:14:24;;;;;;;74.40;32.90;;;2.40;99.90;;;;;;5075874;28;20234;-77
2021/12/12 11:16:56;;;;;;;71.17;32.93;;;2.40;99.90;;;;;;5079173;28;20207;-79
2021/12/12 11:19:34;;;;;;;80.90;37.57;;;2.50;99.90;;;;;;5091221;28;20237;-81
2021/12/12 11:22:14;;;;;;;69.33;29.53;;;2.50;99.90;;;;;;5089031;28;20204;-80
2021/12/12 11:24:46;;;;;;;62.17;29.73;;;2.60;99.90;;;;;;5085569;28;20180;-82
2021/12/12 11:27:19;;;;;;;66.87;30.47;;;2.60;99.90;;;;;;5095302;28;20226;-80
2021/12/12 11:29:51;;;;;;;62.63;29.77;;;2.70;99.90;;;;;;5089286;28;20200;-78
2021/12/12 11:32:24;;;;;;;62.97;29.93;;;2.70;99.90;;;;;;5092120;28;20205;-81
2021/12/12 11:34:54;;;;;;;64.47;30.70;;;2.70;99.90;;;;;;5086755;28;20215;-80
2021/12/12 11:37:34;;;;;;;68.93;32.47;;;2.70;99.90;;;;;;5088933;28;20217;-80
2021/12/12 11:40:11;;;;;;;64.07;30.07;;;2.70;99.90;;;;;;5082410;28;20164;-79
2021/12/12 11:42:44;;;;;;;58.50;30.23;;;2.80;99.90;;;;;;5080130;28;20208;-78
2021/12/12 11:45:26;;;;;;;67.67;31.07;;;2.80;99.90;;;;;;5085955;28;20222;-77
2021/12/12 11:48:19;;;;;;;65.00;30.50;;;2.90;99.90;;;;;;5101243;28;20167;-82
2021/12/12 11:50:59;;;;;;;65.47;29.73;;;2.90;99.90;;;;;;5100226;28;20192;-79
2021/12/12 11:53:36;;;;;;;63.30;31.70;;;3.00;99.90;;;;;;5104730;28;20250;-78
2021/12/12 11:56:12;;;;;;;62.93;32.07;;;3.00;99.90;;;;;;5101437;28;20179;-76
2021/12/12 11:58:47;;;;;;;72.87;41.17;;;3.00;99.90;;;;;;5105953;28;20243;-78
2021/12/12 12:01:27;;;;;;;87.80;44.60;;;2.90;99.90;;;;;;5100682;28;20683;-79
2021/12/12 12:04:17;;;;;;;86.53;40.07;;;2.90;99.90;;;;;;5099063;28;20210;-80
2021/12/12 12:07:04;;;;;;;70.47;35.67;;;2.80;99.90;;;;;;5076072;28;20185;-79
2021/12/12 12:09:49;;;;;;;83.80;44.80;;;2.70;99.90;;;;;;5071170;28;20197;-79
2021/12/12 12:12:36;;;;;;;102.47;52.83;;;2.60;99.90;;;;;;5081832;28;20196;-81
2021/12/12 12:15:10;;;;;;;74.23;39.50;;;2.60;99.90;;;;;;5076603;28;20550;-75
2021/12/12 12:17:56;;;;;;;114.83;60.27;;;2.50;99.90;;;;;;5073715;28;20519;-77
2021/12/12 12:20:31;;;;;;;107.80;54.27;;;2.50;99.90;;;;;;5075188;28;20655;-78
2021/12/12 12:23:11;;;;;;;122.43;46.60;;;2.40;99.90;;;;;;5078317;28;20672;-78
2021/12/12 12:28:44;;;;;;;108.23;38.70;;;2.20;99.90;;;;;;5078970;28;20254;-77
2021/12/12 12:31:41;;;;;;;101.20;47.77;;;2.10;99.90;;;;;;5078008;28;20179;-77
2021/12/12 12:34:44;;;;;;;92.03;42.13;;;2.00;99.90;;;;;;5073714;28;20638;-78
2021/12/12 12:37:50;;;;;;;96.83;44.20;;;1.90;99.90;;;;;;5072303;28;20198;-77
2021/12/12 12:41:09;;;;;;;86.97;37.93;;;1.80;99.90;;;;;;5061085;28;20250;-77
2021/12/12 12:44:24;;;;;;;78.10;36.33;;;1.70;99.90;;;;;;5089616;28;20260;-79
2021/12/12 12:47:39;;;;;;;100.77;45.83;;;1.60;99.90;;;;;;5093461;28;20229;-76
2021/12/12 12:50:38;;;;;;;84.20;42.33;;;1.50;99.90;;;;;;5050826;28;20188;-77
2021/12/12 12:53:33;;;;;;;91.67;41.67;;;1.40;99.90;;;;;;5093621;28;20184;-77
2021/12/12 12:56:14;;;;;;;94.10;46.07;;;1.40;99.90;;;;;;5096291;28;20275;-79
2021/12/12 12:59:16;;;;;;;101.60;49.77;;;1.30;99.90;;;;;;5095113;28;20181;-80
2021/12/12 13:01:50;;;;;;;135.67;59.23;;;1.30;99.90;;;;;;5087204;28;20219;-80
2021/12/12 13:04:24;;;;;;;127.93;56.17;;;1.30;99.90;;;;;;5095290;28;20577;-79
2021/12/12 13:07:20;;;;;;;99.47;45.13;;;1.30;99.90;;;;;;5075410;28;20706;-77
2021/12/12 13:10:02;;;;;;;93.13;42.60;;;1.40;99.90;;;;;;5078168;28;20188;-78
2021/12/12 13:12:55;;;;;;;94.03;46.63;;;1.50;99.90;;;;;;5083446;28;20200;-78
2021/12/12 13:15:46;;;;;;;81.83;40.20;;;1.50;99.90;;;;;;5075200;28;20181;-77
2021/12/12 13:18:27;;;;;;;89.13;45.93;;;1.60;99.90;;;;;;5075647;28;20640;-77
2021/12/12 13:21:12;;;;;;;83.40;41.10;;;1.60;99.90;;;;;;5077424;28;20184;-79
2021/12/12 13:23:55;;;;;;;85.63;38.87;;;1.60;99.90;;;;;;5075046;28;20618;-78
2021/12/12 13:26:33;;;;;;;84.93;38.90;;;1.70;99.90;;;;;;5077070;28;20176;-77
2021/12/12 13:29:16;;;;;;;72.50;34.10;;;1.70;99.90;;;;;;5078837;28;20213;-78
2021/12/12 13:31:53;;;;;;;81.27;38.97;;;1.70;99.90;;;;;;5078274;28;20746;-77